Time;durP1;ratioP1;P1;durP2;ratioP2;P2;SDS_P1;SDS_P2;PMS_P1;PMS_P2;Temp;Humidity;BMP_temperature;BMP_pressure;BME280_temperature;BME280_humidity;BME280_pressure;Samples;Min_cycle;Max_cycle;Signal;HPM_P1;HPM_P2
2023/04/18 00:01:37;;;;;;;17.00;14.27;;;6.90;99.90;;;;;;5065393;28;20076;-91
2023/04/18 00:04:03;;;;;;;16.83;14.40;;;6.90;99.90;;;;;;5071162;28;20047;-91
2023/04/18 00:06:34;;;;;;;14.65;9.82;;;6.80;99.90;;;;;;5069944;28;20138;-90
2023/04/18 00:09:01;;;;;;;15.68;14.07;;;6.80;99.90;;;;;;5067979;28;20084;-92
2023/04/18 00:11:26;;;;;;;17.35;15.52;;;6.70;99.90;;;;;;5076530;28;20132;-92
2023/04/18 00:13:52;;;;;;;14.32;9.50;;;6.70;99.90;;;;;;5068572;28;20107;-89
2023/04/18 00:16:18;;;;;;;16.83;9.23;;;6.60;99.90;;;;;;5070076;28;20041;-91
2023/04/18 00:18:44;;;;;;;15.50;9.95;;;6.50;99.90;;;;;;5071625;28;20040;-94
2023/04/18 00:21:09;;;;;;;16.90;15.00;;;6.50;99.90;;;;;;5074849;28;20063;-92
2023/04/18 00:23:36;;;;;;;15.98;14.38;;;6.50;99.90;;;;;;5066598;28;20174;-93
2023/04/18 00:26:01;;;;;;;15.10;9.05;;;6.60;99.90;;;;;;5064822;28;20095;-94
2023/04/18 00:28:27;;;;;;;16.00;8.90;;;6.60;99.90;;;;;;5082781;28;20033;-94
2023/04/18 00:30:53;;;;;;;17.08;14.77;;;6.50;99.90;;;;;;5065657;28;20047;-90
2023/04/18 00:33:18;;;;;;;17.95;10.18;;;6.60;99.90;;;;;;5083785;28;20070;-93
2023/04/18 00:35:44;;;;;;;15.55;13.95;;;6.60;99.90;;;;;;5092307;28;20111;-94
2023/04/18 00:38:10;;;;;;;14.27;9.25;;;6.60;99.90;;;;;;5093792;28;20055;-93
2023/04/18 00:40:36;;;;;;;16.40;14.10;;;6.60;99.90;;;;;;5077020;28;20033;-93
2023/04/18 00:43:02;;;;;;;17.25;14.30;;;6.60;99.90;;;;;;5061637;28;20045;-92
2023/04/18 00:45:27;;;;;;;14.38;8.73;;;6.60;99.90;;;;;;5064982;28;20036;-93
2023/04/18 00:47:55;;;;;;;14.25;9.07;;;6.60;99.90;;;;;;5051537;28;20036;-93
2023/04/18 00:50:22;;;;;;;18.40;8.95;;;6.60;99.90;;;;;;5065538;28;20128;-93
2023/04/18 00:52:48;;;;;;;15.75;14.15;;;6.50;99.90;;;;;;5058114;28;20067;-93
2023/04/18 00:55:15;;;;;;;17.42;14.30;;;6.60;99.90;;;;;;5073532;28;20033;-92
2023/04/18 00:57:41;;;;;;;15.23;9.77;;;6.60;99.90;;;;;;5073776;28;20052;-95
2023/04/18 01:00:10;;;;;;;16.33;9.43;;;6.50;99.90;;;;;;5057095;28;20084;-93
2023/04/18 01:02:36;;;;;;;16.50;14.13;;;6.50;99.90;;;;;;5072621;28;20055;-93
2023/04/18 01:05:02;;;;;;;15.27;8.43;;;6.50;99.90;;;;;;5074662;28;20043;-92
2023/04/18 01:07:34;;;;;;;16.42;9.73;;;6.50;99.90;;;;;;5063008;28;20029;-93
2023/04/18 01:10:01;;;;;;;15.82;14.15;;;6.40;99.90;;;;;;5071118;28;20417;-94
2023/04/18 01:12:26;;;;;;;16.42;9.95;;;6.40;99.90;;;;;;5073113;28;20049;-92
2023/04/18 01:14:52;;;;;;;15.13;8.80;;;6.40;99.90;;;;;;5072361;28;20033;-91
2023/04/18 01:17:18;;;;;;;17.77;9.93;;;6.40;99.90;;;;;;5074096;28;20123;-92
2023/04/18 01:19:45;;;;;;;16.25;14.55;;;6.40;99.90;;;;;;5081282;28;20115;-94
2023/04/18 01:22:13;;;;;;;17.15;9.38;;;6.50;99.90;;;;;;5061349;28;20489;-94
2023/04/18 01:24:39;;;;;;;15.88;9.38;;;6.50;99.90;;;;;;5043900;28;20033;-92
2023/04/18 01:27:05;;;;;;;16.25;14.35;;;6.40;99.90;;;;;;5055068;28;20185;-92
2023/04/18 01:29:31;;;;;;;15.88;8.65;;;6.40;99.90;;;;;;5073925;28;20072;-92
2023/04/18 01:31:57;;;;;;;16.05;14.27;;;6.30;99.90;;;;;;5055543;28;20520;-93
2023/04/18 01:34:22;;;;;;;17.90;14.75;;;6.40;99.90;;;;;;5073504;28;20032;-92
2023/04/18 01:36:48;;;;;;;16.77;8.93;;;6.30;99.90;;;;;;5070733;28;20037;-92
2023/04/18 01:39:14;;;;;;;14.27;8.55;;;6.20;99.90;;;;;;5069898;28;20135;-92
2023/04/18 01:41:40;;;;;;;16.15;9.00;;;6.20;99.90;;;;;;5036096;28;20048;-92
2023/04/18 01:44:06;;;;;;;18.40;14.35;;;6.10;99.90;;;;;;5069323;28;20315;-92
2023/04/18 01:46:32;;;;;;;16.02;9.80;;;6.20;99.90;;;;;;5070330;28;20040;-94
2023/04/18 01:48:58;;;;;;;16.70;9.10;;;6.20;99.90;;;;;;5055449;28;20043;-93
2023/04/18 01:51:25;;;;;;;15.88;14.18;;;6.20;99.90;;;;;;5072629;28;20064;-91
2023/04/18 01:53:50;;;;;;;14.27;8.73;;;6.20;99.90;;;;;;5070460;28;20041;-92
2023/04/18 01:56:16;;;;;;;14.52;8.68;;;6.20;99.90;;;;;;5072295;28;20106;-91
2023/04/18 01:58:42;;;;;;;15.77;9.55;;;6.20;99.90;;;;;;5073509;28;20127;-92
2023/04/18 02:01:08;;;;;;;16.42;14.48;;;6.30;99.90;;;;;;5070581;28;20047;-93
2023/04/18 02:03:33;;;;;;;16.08;9.68;;;6.30;99.90;;;;;;5072191;28;20044;-93
2023/04/18 02:06:03;;;;;;;17.10;10.27;;;6.30;99.90;;;;;;5055799;28;20405;-92
2023/04/18 02:08:31;;;;;;;17.70;10.27;;;6.30;99.90;;;;;;5080089;28;20045;-93
2023/04/18 02:10:57;;;;;;;17.10;9.73;;;6.30;99.90;;;;;;5058084;28;20044;-93
2023/04/18 02:13:23;;;;;;;17.90;14.43;;;6.30;99.90;;;;;;5073657;28;20457;-93
2023/04/18 02:15:49;;;;;;;14.45;8.90;;;6.40;99.90;;;;;;5072280;28;20040;-93
2023/04/18 02:18:16;;;;;;;16.55;14.73;;;6.40;99.90;;;;;;5073283;28;20040;-94
2023/04/18 02:20:42;;;;;;;15.60;10.10;;;6.40;99.90;;;;;;5073382;28;20055;-93
2023/04/18 02:23:07;;;;;;;17.25;10.30;;;6.40;99.90;;;;;;5072053;28;20112;-92
2023/04/18 02:25:33;;;;;;;16.70;14.95;;;6.40;99.90;;;;;;5071618;28;20029;-91
2023/04/18 02:27:58;;;;;;;16.75;10.10;;;6.50;99.90;;;;;;5071263;28;20036;-93
2023/04/18 02:30:25;;;;;;;15.07;8.93;;;6.50;99.90;;;;;;5069358;28;20150;-93
2023/04/18 02:32:52;;;;;;;16.60;8.57;;;6.50;99.90;;;;;;5063744;28;20028;-93
2023/04/18 02:35:21;;;;;;;18.10;15.93;;;6.60;99.90;;;;;;5055242;28;20046;-94
2023/04/18 02:37:47;;;;;;;17.83;15.63;;;6.60;99.90;;;;;;5072479;28;20115;-92
2023/04/18 02:40:13;;;;;;;15.65;9.93;;;6.70;99.90;;;;;;5071343;28;20079;-94
2023/04/18 02:42:38;;;;;;;18.83;16.02;;;6.70;99.90;;;;;;5055139;28;20037;-92
2023/04/18 02:45:06;;;;;;;17.15;10.18;;;6.70;99.90;;;;;;5067453;28;20229;-94
2023/04/18 02:47:31;;;;;;;17.65;15.75;;;6.70;99.90;;;;;;5059029;28;20040;-93
2023/04/18 02:49:57;;;;;;;16.55;9.80;;;6.70;99.90;;;;;;5071738;28;20037;-90
2023/04/18 02:52:24;;;;;;;18.98;16.95;;;6.70;99.90;;;;;;5071686;28;20040;-94
2023/04/18 02:54:49;;;;;;;17.85;15.82;;;6.70;99.90;;;;;;5072368;28;20041;-94
2023/04/18 02:57:15;;;;;;;15.88;10.07;;;6.70;99.90;;;;;;5071520;28;20044;-94
2023/04/18 02:59:41;;;;;;;18.30;16.35;;;6.70;99.90;;;;;;5074025;28;20108;-93
2023/04/18 03:02:06;;;;;;;16.00;10.02;;;6.70;99.90;;;;;;5049377;28;20124;-92
2023/04/18 03:04:32;;;;;;;18.52;16.42;;;6.70;99.90;;;;;;5072886;28;20032;-93
2023/04/18 03:06:58;;;;;;;19.15;16.30;;;6.70;99.90;;;;;;5071591;28;20042;-93
2023/04/18 03:09:25;;;;;;;17.38;10.10;;;6.70;99.90;;;;;;5054986;28;20099;-92
2023/04/18 03:11:51;;;;;;;18.77;16.88;;;6.70;99.90;;;;;;5071118;28;20076;-93
2023/04/18 03:14:16;;;;;;;17.80;9.30;;;6.70;99.90;;;;;;5070185;28;20092;-92
2023/04/18 03:16:42;;;;;;;16.92;10.30;;;6.60;99.90;;;;;;5050982;28;20037;-92
2023/04/18 03:19:08;;;;;;;19.58;16.90;;;6.60;99.90;;;;;;5040102;28;20116;-92
2023/04/18 03:21:33;;;;;;;17.30;10.48;;;6.60;99.90;;;;;;5070430;28;20051;-92
2023/04/18 03:23:59;;;;;;;19.33;17.25;;;6.60;99.90;;;;;;5070344;28;20033;-93
2023/04/18 03:26:25;;;;;;;1045.60;522.42;;;6.60;99.90;;;;;;5054063;28;20041;-93
2023/04/18 03:28:51;;;;;;;17.08;9.77;;;6.60;99.90;;;;;;5053893;28;20044;-94
2023/04/18 03:31:17;;;;;;;1911.90;633.22;;;6.60;99.90;;;;;;5068686;28;20436;-92
2023/04/18 03:33:44;;;;;;;1193.68;224.13;;;6.50;99.90;;;;;;5070527;28;20500;-93
2023/04/18 03:36:13;;;;;;;16.92;9.65;;;6.60;99.90;;;;;;5069698;28;20048;-95
2023/04/18 03:38:40;;;;;;;17.08;9.65;;;6.60;99.90;;;;;;5072988;28;20044;-94
2023/04/18 03:41:06;;;;;;;43.63;31.15;;;6.60;99.90;;;;;;5071930;28;20033;-94
2023/04/18 03:43:32;;;;;;;18.33;15.68;;;6.60;99.90;;;;;;5054577;28;20157;-93
2023/04/18 03:45:57;;;;;;;1999.90;999.90;;;6.70;99.90;;;;;;5055981;28;20036;-91
2023/04/18 03:48:23;;;;;;;91.20;80.45;;;6.70;99.90;;;;;;5039918;28;20041;-93
2023/04/18 03:50:49;;;;;;;1999.90;999.90;;;6.70;99.90;;;;;;5072627;28;20484;-93
2023/04/18 03:53:15;;;;;;;558.05;219.13;;;6.70;99.90;;;;;;5050745;28;20484;-94
2023/04/18 03:55:40;;;;;;;979.58;779.92;;;6.80;99.90;;;;;;5070946;28;20123;-92
2023/04/18 03:58:06;;;;;;;1239.22;859.92;;;6.70;99.90;;;;;;5070443;28;20079;-93
2023/04/18 04:00:32;;;;;;;1999.90;999.90;;;6.70;99.90;;;;;;5070320;28;20048;-92
2023/04/18 04:02:57;;;;;;;1999.90;999.90;;;6.80;99.90;;;;;;5054419;28;20037;-93
2023/04/18 04:05:23;;;;;;;1999.90;999.90;;;6.80;99.90;;;;;;5056491;28;20164;-93
2023/04/18 04:07:49;;;;;;;1999.90;999.90;;;6.80;99.90;;;;;;5050717;28;20033;-93
2023/04/18 04:10:14;;;;;;;1999.90;999.90;;;6.80;99.90;;;;;;5050494;28;20041;-93
2023/04/18 04:12:40;;;;;;;1999.90;999.90;;;6.80;99.90;;;;;;5050772;28;20504;-93
2023/04/18 04:15:06;;;;;;;1999.90;999.90;;;6.90;99.90;;;;;;5051354;28;20459;-92
2023/04/18 04:17:32;;;;;;;1999.90;999.90;;;6.90;99.90;;;;;;5053249;28;20042;-95
2023/04/18 04:19:57;;;;;;;1999.90;999.90;;;6.90;99.90;;;;;;5047556;28;20556;-91
2023/04/18 04:22:23;;;;;;;1999.90;999.90;;;6.90;99.90;;;;;;5076207;28;20102;-93
2023/04/18 04:24:49;;;;;;;1999.90;999.90;;;6.90;99.90;;;;;;5051636;28;20420;-91
2023/04/18 04:27:17;;;;;;;1999.90;999.90;;;6.90;99.90;;;;;;5055767;28;20041;-93
2023/04/18 04:29:43;;;;;;;1999.90;999.90;;;6.90;99.90;;;;;;5055545;28;20075;-93
2023/04/18 04:32:08;;;;;;;1999.90;999.90;;;6.90;99.90;;;;;;5054452;28;20040;-93
2023/04/18 04:34:35;;;;;;;1999.90;999.90;;;6.90;99.90;;;;;;5054254;28;20045;-93
2023/04/18 04:37:01;;;;;;;1999.90;999.90;;;7.00;99.90;;;;;;5055147;28;20064;-93
2023/04/18 04:39:27;;;;;;;1999.90;999.90;;;7.00;99.90;;;;;;5075595;28;20082;-91
2023/04/18 04:41:53;;;;;;;1999.90;999.90;;;7.00;99.90;;;;;;5072498;28;20037;-91
2023/04/18 04:44:20;;;;;;;1999.90;999.90;;;7.00;99.90;;;;;;5055740;28;20088;-92
2023/04/18 04:46:46;;;;;;;1999.90;999.90;;;7.00;99.90;;;;;;5038302;28;20041;-92
2023/04/18 04:49:12;;;;;;;1999.90;999.90;;;7.00;99.90;;;;;;5054011;28;20054;-93
2023/04/18 04:51:39;;;;;;;1999.90;999.90;;;7.00;99.90;;;;;;5038336;28;20049;-94
2023/04/18 04:54:05;;;;;;;1999.90;999.90;;;7.00;99.90;;;;;;5054680;28;20099;-93
2023/04/18 04:56:31;;;;;;;1999.90;999.90;;;7.00;99.90;;;;;;5055042;28;20048;-91
2023/04/18 04:59:00;;;;;;;1999.90;999.90;;;7.10;99.90;;;;;;5044565;28;20052;-92
2023/04/18 05:01:26;;;;;;;1999.90;999.90;;;7.10;99.90;;;;;;5079580;28;20044;-92
2023/04/18 05:03:52;;;;;;;1999.90;999.90;;;7.10;99.90;;;;;;5081195;28;20249;-91
2023/04/18 05:06:19;;;;;;;1999.90;999.90;;;7.10;99.90;;;;;;5086120;28;20048;-92
2023/04/18 05:08:49;;;;;;;1999.90;999.90;;;7.20;99.90;;;;;;5083936;28;20029;-92
2023/04/18 05:11:16;;;;;;;1999.90;999.90;;;7.20;99.90;;;;;;5078771;28;20055;-94
2023/04/18 05:13:41;;;;;;;1999.90;999.90;;;7.20;99.90;;;;;;5092302;28;20045;-93
2023/04/18 05:16:07;;;;;;;1999.90;999.90;;;7.20;99.90;;;;;;5089126;28;20033;-89
2023/04/18 05:18:33;;;;;;;1999.90;999.90;;;7.20;99.90;;;;;;5077181;28;20047;-93
2023/04/18 05:20:59;;;;;;;1999.90;999.90;;;7.20;99.90;;;;;;5076646;28;20478;-90
2023/04/18 05:23:24;;;;;;;1999.90;999.90;;;7.10;99.90;;;;;;5070118;28;20037;-93
2023/04/18 05:25:50;;;;;;;1999.90;999.90;;;7.20;99.90;;;;;;5055132;28;20033;-93
2023/04/18 05:28:15;;;;;;;1999.90;999.90;;;7.20;99.90;;;;;;5074378;28;20127;-90
2023/04/18 05:30:41;;;;;;;1999.90;999.90;;;7.20;99.90;;;;;;5062647;28;20045;-92
2023/04/18 05:33:07;;;;;;;1999.90;999.90;;;7.10;99.90;;;;;;5072729;28;20045;-92
2023/04/18 05:35:33;;;;;;;1999.90;999.90;;;7.20;99.90;;;;;;5074990;28;20033;-91
2023/04/18 05:37:58;;;;;;;1999.90;999.90;;;7.10;99.90;;;;;;5070713;28;20400;-90
2023/04/18 05:40:28;;;;;;;1999.90;999.90;;;7.10;99.90;;;;;;5077933;28;20362;-92
2023/04/18 05:42:54;;;;;;;1999.90;999.90;;;7.10;99.90;;;;;;5075394;28;20036;-91
2023/04/18 05:45:20;;;;;;;1999.90;999.90;;;7.20;99.90;;;;;;5074232;28;20547;-91
2023/04/18 05:47:45;;;;;;;1999.90;999.90;;;7.20;99.90;;;;;;5062067;28;20041;-88
2023/04/18 05:50:11;;;;;;;1999.90;999.90;;;7.20;99.90;;;;;;5083544;28;20484;-89
2023/04/18 05:52:40;;;;;;;1999.90;999.90;;;7.20;99.90;;;;;;5079242;28;20041;-88
2023/04/18 05:55:06;;;;;;;1999.90;999.90;;;7.30;99.90;;;;;;5088338;28;20043;-91
2023/04/18 05:57:31;;;;;;;1999.90;999.90;;;7.30;99.90;;;;;;5062552;28;20055;-92
2023/04/18 05:59:57;;;;;;;1999.90;999.90;;;7.40;99.90;;;;;;5090643;28;20044;-91
2023/04/18 06:02:23;;;;;;;1999.90;999.90;;;7.40;99.90;;;;;;5090100;28;20028;-89
2023/04/18 06:04:49;;;;;;;1999.90;999.90;;;7.40;99.90;;;;;;5091370;28;20041;-93
2023/04/18 06:07:14;;;;;;;1999.90;999.90;;;7.50;99.90;;;;;;5090651;28;20043;-91
2023/04/18 06:09:40;;;;;;;1999.90;999.90;;;7.50;99.90;;;;;;5072118;28;20051;-89
2023/04/18 06:12:05;;;;;;;1999.90;999.90;;;7.60;99.90;;;;;;5091173;28;20058;-91
2023/04/18 06:14:31;;;;;;;1999.90;999.90;;;7.60;99.90;;;;;;5088619;28;20116;-90
2023/04/18 06:16:57;;;;;;;1999.90;999.90;;;7.70;99.90;;;;;;5089392;28;20111;-92
2023/04/18 06:19:23;;;;;;;1999.90;999.90;;;7.70;99.90;;;;;;5068226;28;20473;-90
2023/04/18 06:21:49;;;;;;;1999.90;999.90;;;7.80;99.90;;;;;;5068075;28;20071;-94
2023/04/18 06:24:15;;;;;;;1999.90;999.90;;;7.80;99.90;;;;;;5085397;28;20119;-91
2023/04/18 06:26:40;;;;;;;1999.90;999.90;;;7.90;99.90;;;;;;5079651;28;20043;-92
2023/04/18 06:29:06;;;;;;;1999.90;999.90;;;7.90;99.90;;;;;;5066139;28;20285;-94
2023/04/18 06:31:32;;;;;;;1999.90;999.90;;;8.00;99.90;;;;;;5084107;28;20041;-93
2023/04/18 06:33:57;;;;;;;1999.90;999.90;;;8.00;99.90;;;;;;5067382;28;20040;-90
2023/04/18 06:36:23;;;;;;;1999.90;999.90;;;8.00;99.90;;;;;;5070218;28;20388;-93
2023/04/18 06:38:49;;;;;;;1999.90;999.90;;;8.10;99.90;;;;;;5067323;28;20033;-92
2023/04/18 06:41:14;;;;;;;1999.90;999.90;;;8.20;99.90;;;;;;5068107;28;20427;-94
2023/04/18 06:43:40;;;;;;;1999.90;999.90;;;8.20;99.90;;;;;;5067178;28;20032;-94
2023/04/18 06:46:07;;;;;;;1999.90;999.90;;;8.30;99.90;;;;;;5042242;28;20048;-93
2023/04/18 06:48:32;;;;;;;1999.90;999.90;;;8.40;99.90;;;;;;5062549;28;20107;-91
2023/04/18 06:50:58;;;;;;;1999.90;999.90;;;8.40;99.90;;;;;;5061003;28;20075;-90
2023/04/18 06:53:24;;;;;;;1999.90;999.90;;;8.60;99.90;;;;;;5077649;28;20055;-92
2023/04/18 06:55:49;;;;;;;1999.90;999.90;;;8.70;99.90;;;;;;5067861;28;20049;-92
2023/04/18 06:58:15;;;;;;;1999.90;999.90;;;8.80;99.90;;;;;;5053446;28;20107;-93
2023/04/18 07:00:42;;;;;;;1999.90;999.90;;;8.90;99.90;;;;;;5072904;28;20042;-95
2023/04/18 07:03:11;;;;;;;1999.90;999.90;;;9.10;99.90;;;;;;5053014;28;20033;-95
2023/04/18 07:05:40;;;;;;;1999.90;999.90;;;9.20;99.90;;;;;;5078804;28;20197;-93
2023/04/18 07:08:06;;;;;;;1999.90;999.90;;;9.40;99.90;;;;;;5056668;28;20086;-92
2023/04/18 07:10:32;;;;;;;1999.90;999.90;;;9.60;99.90;;;;;;5059264;28;20032;-91
2023/04/18 07:12:58;;;;;;;1999.90;999.90;;;9.70;99.90;;;;;;5074806;28;20455;-93
2023/04/18 07:15:23;;;;;;;1999.90;999.90;;;9.80;99.90;;;;;;5089125;28;20028;-93
2023/04/18 07:17:49;;;;;;;1999.90;999.90;;;9.80;99.90;;;;;;5084917;28;20041;-96
2023/04/18 07:20:15;;;;;;;1999.90;999.90;;;9.80;99.90;;;;;;5086651;28;20044;-93
2023/04/18 07:22:41;;;;;;;1999.90;999.90;;;9.80;99.90;;;;;;5083273;28;20047;-92
2023/04/18 07:25:07;;;;;;;1999.90;999.90;;;9.90;99.90;;;;;;5087316;28;20025;-95
2023/04/18 07:27:35;;;;;;;1999.90;999.90;;;9.90;99.90;;;;;;5078617;28;20071;-93
2023/04/18 07:30:01;;;;;;;1999.90;999.90;;;10.00;99.90;;;;;;5076792;28;20044;-93
2023/04/18 07:32:27;;;;;;;1999.90;999.90;;;9.90;99.90;;;;;;5075546;28;20037;-93
2023/04/18 07:34:56;;;;;;;1999.90;999.90;;;10.00;99.90;;;;;;5074651;28;20040;-93
2023/04/18 07:37:22;;;;;;;1999.90;999.90;;;10.10;99.90;;;;;;5057997;28;20159;-94
2023/04/18 07:39:50;;;;;;;1999.90;999.90;;;10.10;99.90;;;;;;5075416;28;20511;-95
2023/04/18 07:42:16;;;;;;;1999.90;999.90;;;10.20;99.90;;;;;;5074922;28;20048;-93
2023/04/18 07:44:42;;;;;;;1999.90;999.90;;;10.30;99.90;;;;;;5090520;28;20062;-91
2023/04/18 07:47:11;;;;;;;1999.90;999.90;;;10.40;99.90;;;;;;5065968;28;20114;-92
2023/04/18 07:49:37;;;;;;;1999.90;999.90;;;10.40;99.90;;;;;;5068494;28;20052;-90
2023/04/18 07:52:04;;;;;;;1999.90;999.90;;;10.50;99.90;;;;;;5072379;28;20094;-89
2023/04/18 07:54:29;;;;;;;1999.90;999.90;;;10.60;99.90;;;;;;5083654;28;20048;-84
2023/04/18 07:56:55;;;;;;;1999.90;999.90;;;10.70;99.90;;;;;;5082531;28;20035;-90
2023/04/18 07:59:21;;;;;;;1999.90;999.90;;;10.70;99.90;;;;;;5068090;28;20156;-88
2023/04/18 08:01:47;;;;;;;1999.90;999.90;;;10.70;99.90;;;;;;5084480;28;20064;-89
2023/04/18 08:04:13;;;;;;;1999.90;999.90;;;10.70;99.90;;;;;;5072369;28;20520;-92
2023/04/18 08:06:39;;;;;;;1999.90;999.90;;;10.80;99.90;;;;;;5095035;28;20077;-89
2023/04/18 08:09:05;;;;;;;1999.90;999.90;;;10.90;99.90;;;;;;5075163;28;20056;-94
2023/04/18 08:11:34;;;;;;;1999.90;999.90;;;11.00;99.90;;;;;;5085590;28;20086;-90
2023/04/18 08:14:00;;;;;;;1999.90;999.90;;;11.00;99.90;;;;;;5094404;28;20055;-90
2023/04/18 08:16:28;;;;;;;1999.90;999.90;;;11.10;99.90;;;;;;5084414;28;20052;-91
2023/04/18 08:18:53;;;;;;;1999.90;999.90;;;11.10;99.90;;;;;;5077458;28;20040;-93
2023/04/18 08:21:19;;;;;;;1999.90;999.90;;;11.00;99.90;;;;;;5096795;28;20048;-92
2023/04/18 08:23:46;;;;;;;1999.90;999.90;;;10.80;99.90;;;;;;5076998;28;20059;-92
2023/04/18 08:26:11;;;;;;;1999.90;999.90;;;10.70;99.90;;;;;;5077244;28;20056;-91
2023/04/18 08:28:37;;;;;;;1999.90;999.90;;;10.60;99.90;;;;;;5079212;28;20044;-90
2023/04/18 08:31:03;;;;;;;1999.90;999.90;;;10.50;99.90;;;;;;5056551;28;20038;-94
2023/04/18 08:33:29;;;;;;;1999.90;999.90;;;10.60;99.90;;;;;;5078233;28;20047;-92
2023/04/18 08:35:55;;;;;;;1999.90;999.90;;;10.70;99.90;;;;;;5073993;28;20036;-92
2023/04/18 08:38:21;;;;;;;1999.90;999.90;;;10.70;99.90;;;;;;5076526;28;20041;-95
2023/04/18 08:40:47;;;;;;;1999.90;999.90;;;10.70;99.90;;;;;;5056882;28;20040;-94
2023/04/18 08:43:14;;;;;;;1999.90;999.90;;;10.60;99.90;;;;;;5075970;28;20032;-91
2023/04/18 08:45:40;;;;;;;1999.90;999.90;;;10.70;99.90;;;;;;5093192;28;20048;-92
2023/04/18 08:48:10;;;;;;;1999.90;999.90;;;10.80;99.90;;;;;;5066654;28;20430;-92
2023/04/18 08:50:35;;;;;;;1999.90;999.90;;;10.80;99.90;;;;;;5058222;28;20106;-90
2023/04/18 08:53:01;;;;;;;1999.90;999.90;;;10.90;99.90;;;;;;5071843;28;20036;-89
2023/04/18 08:55:27;;;;;;;1999.90;999.90;;;10.90;99.90;;;;;;5075033;28;20037;-89
2023/04/18 08:57:54;;;;;;;1999.90;999.90;;;10.90;99.90;;;;;;5066765;28;20106;-89
2023/04/18 09:00:21;;;;;;;1999.90;999.90;;;11.00;99.90;;;;;;5078133;28;20048;-91
2023/04/18 09:02:48;;;;;;;1999.90;999.90;;;11.10;99.90;;;;;;5056142;28;20052;-89
2023/04/18 09:05:18;;;;;;;1999.90;999.90;;;11.10;99.90;;;;;;5074892;28;20037;-92
2023/04/18 09:07:45;;;;;;;1999.90;999.90;;;11.10;99.90;;;;;;5060278;28;20036;-95
2023/04/18 09:10:12;;;;;;;1999.90;999.90;;;11.20;99.90;;;;;;5060496;28;20060;-95
2023/04/18 09:12:49;;;;;;;1999.90;999.90;;;11.30;99.90;;;;;;5064055;28;20040;-93
2023/04/18 09:15:22;;;;;;;1999.90;999.90;;;11.40;99.90;;;;;;5073572;28;20056;-90
2023/04/18 09:17:49;;;;;;;1999.90;999.90;;;11.40;99.90;;;;;;5073703;28;20036;-90
2023/04/18 09:20:33;;;;;;;1999.90;999.90;;;11.40;99.90;;;;;;5073137;28;20123;-94
2023/04/18 09:23:01;;;;;;;1999.90;999.90;;;11.40;99.90;;;;;;5075529;28;20037;-92
2023/04/18 09:25:43;;;;;;;1999.90;999.90;;;11.50;99.90;;;;;;5077350;28;20039;-93
2023/04/18 09:28:29;;;;;;;1999.90;999.90;;;11.60;99.90;;;;;;5075327;28;20079;-93
2023/04/18 09:31:10;;;;;;;1999.90;999.90;;;11.70;99.90;;;;;;5071589;28;20104;-87
2023/04/18 09:33:36;;;;;;;1999.90;999.90;;;11.90;99.90;;;;;;5065023;28;20048;-90
2023/04/18 09:36:22;;;;;;;1999.90;999.90;;;12.00;99.90;;;;;;5068879;28;20049;-86
2023/04/18 09:38:50;;;;;;;1999.90;999.90;;;12.00;99.90;;;;;;5070487;28;20041;-86
2023/04/18 09:41:16;;;;;;;1999.90;999.90;;;12.10;99.90;;;;;;5069976;28;20048;-84
2023/04/18 09:43:45;;;;;;;1999.90;999.90;;;12.10;99.90;;;;;;5072951;28;20075;-88
2023/04/18 09:46:12;;;;;;;1999.90;999.90;;;12.20;99.90;;;;;;5053887;28;20028;-88
2023/04/18 09:48:38;;;;;;;1999.90;999.90;;;12.30;99.90;;;;;;5072110;28;20040;-89
2023/04/18 09:51:10;;;;;;;1999.90;999.90;;;12.40;99.90;;;;;;5070917;28;20500;-85
2023/04/18 09:53:40;;;;;;;1999.90;999.90;;;12.30;99.90;;;;;;5078667;28;20036;-88
2023/04/18 09:56:12;;;;;;;1999.90;999.90;;;12.40;99.90;;;;;;5076959;28;20041;-87
2023/04/18 09:58:41;;;;;;;1999.90;999.90;;;12.50;99.90;;;;;;5078727;28;20353;-88
2023/04/18 10:01:07;;;;;;;1999.90;999.90;;;12.60;99.90;;;;;;5070350;28;20212;-88
2023/04/18 10:03:40;;;;;;;1999.90;999.90;;;12.70;99.90;;;;;;5070927;28;20036;-91
2023/04/18 10:06:08;;;;;;;1999.90;999.90;;;12.90;99.90;;;;;;5068181;28;20242;-87
2023/04/18 10:08:34;;;;;;;1999.90;999.90;;;13.00;99.90;;;;;;5067645;28;20056;-94
2023/04/18 10:11:00;;;;;;;1999.90;999.90;;;13.00;99.90;;;;;;5059078;28;20033;-86
2023/04/18 10:13:27;;;;;;;1999.90;999.90;;;13.10;99.90;;;;;;5069340;28;20068;-91
2023/04/18 10:15:54;;;;;;;1999.90;999.90;;;13.20;99.90;;;;;;5069903;28;20028;-88
2023/04/18 10:18:22;;;;;;;1999.90;999.90;;;13.20;99.90;;;;;;5051117;28;20043;-90
2023/04/18 10:20:48;;;;;;;1999.90;999.90;;;13.20;99.90;;;;;;5062131;28;20112;-88
2023/04/18 10:23:34;;;;;;;1999.90;999.90;;;13.10;99.90;;;;;;5070264;28;20175;-92
2023/04/18 10:26:10;;;;;;;1999.90;999.90;;;13.10;99.90;;;;;;5055507;28;20050;-92
2023/04/18 10:28:56;;;;;;;1999.90;999.90;;;13.20;99.90;;;;;;5067382;28;20039;-89
2023/04/18 10:31:23;;;;;;;1999.90;999.90;;;13.40;99.90;;;;;;5057997;28;20060;-89
2023/04/18 10:33:57;;;;;;;1999.90;999.90;;;13.50;99.90;;;;;;5071834;28;20053;-88
2023/04/18 10:36:23;;;;;;;1999.90;999.90;;;13.50;99.90;;;;;;5070790;28;20047;-88
2023/04/18 10:38:54;;;;;;;1999.90;999.90;;;13.50;99.90;;;;;;5071460;28;20051;-94
2023/04/18 10:41:27;;;;;;;1999.90;999.90;;;13.40;99.90;;;;;;5070708;28;20040;-92
2023/04/18 10:44:16;;;;;;;1999.90;999.90;;;13.40;99.90;;;;;;5068147;28;20377;-93
2023/04/18 10:47:05;;;;;;;1999.90;999.90;;;13.40;99.90;;;;;;5067202;28;20060;-87
2023/04/18 10:49:31;;;;;;;1999.90;999.90;;;13.50;99.90;;;;;;5058819;28;20048;-92
2023/04/18 10:51:59;;;;;;;1999.90;999.90;;;13.50;99.90;;;;;;5068200;28;20037;-92
2023/04/18 10:54:37;;;;;;;1999.90;999.90;;;13.60;99.90;;;;;;5074178;28;20060;-88
2023/04/18 10:57:06;;;;;;;1999.90;999.90;;;13.70;99.90;;;;;;5054539;28;20040;-85
2023/04/18 10:59:33;;;;;;;1999.90;999.90;;;13.70;99.90;;;;;;5056266;28;20061;-89
2023/04/18 11:02:10;;;;;;;1999.90;999.90;;;13.80;99.90;;;;;;5079899;28;20371;-89
2023/04/18 11:04:38;;;;;;;1999.90;999.90;;;13.90;99.90;;;;;;5064621;28;20167;-87
2023/04/18 11:07:04;;;;;;;1999.90;999.90;;;14.00;99.90;;;;;;5055164;28;20128;-87
2023/04/18 11:09:29;;;;;;;1999.90;999.90;;;14.20;99.90;;;;;;5058135;28;20562;-90
2023/04/18 11:12:03;;;;;;;1999.90;999.90;;;14.30;99.90;;;;;;5069010;28;20032;-90
2023/04/18 11:14:42;;;;;;;1999.90;999.90;;;14.40;99.90;;;;;;5055422;28;20216;-90
2023/04/18 11:17:19;;;;;;;1999.90;999.90;;;14.60;99.90;;;;;;5060286;28;20373;-89
2023/04/18 11:19:45;;;;;;;1999.90;999.90;;;14.70;99.90;;;;;;5076439;28;20420;-91
2023/04/18 11:22:12;;;;;;;1999.90;999.90;;;14.60;99.90;;;;;;5053649;28;20040;-92
2023/04/18 11:24:38;;;;;;;1999.90;999.90;;;14.50;99.90;;;;;;5058252;28;20088;-88
2023/04/18 11:27:04;;;;;;;1999.90;999.90;;;14.50;99.90;;;;;;5034276;28;20067;-90
2023/04/18 11:29:30;;;;;;;1999.90;999.90;;;14.50;99.90;;;;;;5057884;28;20036;-92
2023/04/18 11:31:55;;;;;;;1999.90;999.90;;;14.50;99.90;;;;;;5064235;28;20127;-93
2023/04/18 11:34:21;;;;;;;1999.90;999.90;;;14.20;99.90;;;;;;5063932;28;20071;-89
2023/04/18 11:36:51;;;;;;;1999.90;999.90;;;14.00;99.90;;;;;;5063785;28;20419;-89
2023/04/18 11:39:17;;;;;;;1999.90;999.90;;;13.90;99.90;;;;;;5068470;28;20041;-90
2023/04/18 11:41:49;;;;;;;1999.90;999.90;;;14.00;99.90;;;;;;5069077;28;20045;-87
2023/04/18 11:44:16;;;;;;;1999.90;999.90;;;14.10;99.90;;;;;;5067077;28;20041;-87
2023/04/18 11:46:43;;;;;;;1999.90;999.90;;;14.20;99.90;;;;;;5075988;28;20545;-88
2023/04/18 11:49:32;;;;;;;1999.90;999.90;;;14.30;99.90;;;;;;5054730;28;20076;-93
2023/04/18 11:51:59;;;;;;;1999.90;999.90;;;14.40;99.90;;;;;;5068652;28;20093;-89
2023/04/18 11:54:34;;;;;;;1999.90;999.90;;;14.50;99.90;;;;;;5066810;28;20508;-89
2023/04/18 11:57:01;;;;;;;1999.90;999.90;;;14.60;99.90;;;;;;5045787;28;20037;-88
2023/04/18 11:59:26;;;;;;;1999.90;999.90;;;14.60;99.90;;;;;;5064710;28;20084;-88
2023/04/18 12:02:03;;;;;;;1999.90;999.90;;;14.70;99.90;;;;;;5042609;28;20072;-86
2023/04/18 12:04:29;;;;;;;1999.90;999.90;;;14.70;99.90;;;;;;5064866;28;20029;-93
2023/04/18 12:06:54;;;;;;;1999.90;999.90;;;14.60;99.90;;;;;;5058808;28;20111;-90
2023/04/18 12:09:24;;;;;;;1999.90;999.90;;;14.60;99.90;;;;;;5063795;28;20518;-91
2023/04/18 12:12:04;;;;;;;1999.90;999.90;;;14.60;99.90;;;;;;5040915;28;20052;-89
2023/04/18 12:14:29;;;;;;;1999.90;999.90;;;14.60;99.90;;;;;;5065764;28;20412;-89